createdAt,value
2019-06-27T00:01:06.823Z,5.30
2019-06-27T00:03:38.759Z,5.27
2019-06-27T00:06:11.074Z,4.70
2019-06-27T00:08:43.043Z,5.17
2019-06-27T00:11:14.705Z,4.40
2019-06-27T00:13:46.760Z,4.20
2019-06-27T00:16:19.031Z,4.43
2019-06-27T00:18:51.193Z,5.80
2019-06-27T00:21:23.105Z,4.63
2019-06-27T00:23:54.766Z,4.50
2019-06-27T00:26:26.475Z,4.40
2019-06-27T00:28:58.910Z,4.40
2019-06-27T00:31:31.219Z,4.97
2019-06-27T00:34:03.172Z,5.10
2019-06-27T00:36:34.820Z,4.43
2019-06-27T00:39:06.944Z,3.53
2019-06-27T00:41:38.971Z,4.07
2019-06-27T00:44:10.665Z,4.23
2019-06-27T00:46:42.522Z,5.00
2019-06-27T00:49:14.455Z,4.93
2019-06-27T00:51:46.558Z,4.80
2019-06-27T00:54:18.382Z,4.20
2019-06-27T00:56:50.359Z,4.43
2019-06-27T00:59:22.625Z,4.67
2019-06-27T01:01:54.256Z,4.40
2019-06-27T01:04:26.561Z,4.60
2019-06-27T01:06:58.571Z,3.80
2019-06-27T01:09:31.009Z,4.00
2019-06-27T01:12:02.961Z,4.53
2019-06-27T01:14:34.603Z,3.90
2019-06-27T01:17:06.852Z,5.07
2019-06-27T01:19:39.330Z,3.63
2019-06-27T01:22:11.396Z,4.13
2019-06-27T01:24:43.809Z,4.17
2019-06-27T01:27:29.118Z,3.97
2019-06-27T01:29:49.710Z,3.93
2019-06-27T01:32:21.761Z,3.67
2019-06-27T01:34:53.591Z,3.40
2019-06-27T01:37:25.791Z,3.93
2019-06-27T01:39:57.756Z,3.47
2019-06-27T01:42:29.718Z,3.20
2019-06-27T01:45:11.326Z,4.23
2019-06-27T01:47:43.377Z,3.27
2019-06-27T01:50:15.592Z,3.47
2019-06-27T01:52:47.534Z,3.43
2019-06-27T01:55:19.343Z,3.40
2019-06-27T01:57:51.362Z,3.33
2019-06-27T02:00:24.196Z,3.30
2019-06-27T02:02:56.440Z,2.90
2019-06-27T02:05:28.534Z,3.07
2019-06-27T02:08:00.195Z,3.10
2019-06-27T02:10:32.183Z,3.00
2019-06-27T02:13:04.521Z,3.43
2019-06-27T02:15:36.349Z,3.10
2019-06-27T02:18:08.212Z,3.60
2019-06-27T02:20:46.495Z,3.80
2019-06-27T02:23:18.565Z,3.50
2019-06-27T02:25:50.621Z,3.00
2019-06-27T02:28:26.016Z,2.87
2019-06-27T02:30:58.057Z,3.73
2019-06-27T02:33:30.321Z,3.83
2019-06-27T02:36:02.267Z,3.23
2019-06-27T02:38:34.386Z,3.70
2019-06-27T02:41:06.307Z,3.80
2019-06-27T02:43:37.966Z,3.67
2019-06-27T02:46:10.830Z,3.47
2019-06-27T02:48:42.594Z,3.23
2019-06-27T02:51:14.992Z,3.63
2019-06-27T02:53:47.366Z,3.30
2019-06-27T02:56:19.122Z,3.43
2019-06-27T02:58:51.011Z,3.20
2019-06-27T03:01:22.894Z,3.37
2019-06-27T03:03:54.579Z,3.73
2019-06-27T03:06:26.599Z,3.43
2019-06-27T03:08:58.876Z,3.60
2019-06-27T03:11:31.446Z,3.60
2019-06-27T03:14:03.831Z,3.43
2019-06-27T03:16:35.754Z,3.47
2019-06-27T03:19:08.923Z,3.63
2019-06-27T03:21:41.019Z,3.13
2019-06-27T03:24:13.592Z,3.13
2019-06-27T03:26:45.277Z,3.50
2019-06-27T03:29:20.445Z,3.07
2019-06-27T03:31:51.433Z,3.27
2019-06-27T03:34:23.548Z,3.87
2019-06-27T03:36:55.300Z,2.80
2019-06-27T03:39:27.828Z,3.60
2019-06-27T03:41:59.906Z,3.13
2019-06-27T03:44:31.976Z,3.23
2019-06-27T03:47:03.873Z,3.30
2019-06-27T03:49:36.012Z,3.53
2019-06-27T03:52:07.805Z,3.53
2019-06-27T03:54:40.048Z,3.40
2019-06-27T03:57:12.438Z,3.30
2019-06-27T03:59:44.866Z,3.27
2019-06-27T04:02:16.783Z,2.70
2019-06-27T04:04:48.926Z,2.80
2019-06-27T04:07:21.318Z,2.97
2019-06-27T04:09:53.268Z,2.87
2019-06-27T04:12:25.771Z,3.20
2019-06-27T04:14:57.444Z,2.83
2019-06-27T04:17:29.116Z,3.10
2019-06-27T04:20:01.248Z,2.67
2019-06-27T04:22:33.385Z,2.90
2019-06-27T04:25:05.322Z,3.10
2019-06-27T04:27:37.293Z,3.50
2019-06-27T04:30:09.422Z,3.03
2019-06-27T04:32:41.700Z,2.30
2019-06-27T04:35:13.966Z,3.60
2019-06-27T04:37:46.008Z,3.20
2019-06-27T04:40:18.206Z,3.10
2019-06-27T04:42:50.944Z,3.33
2019-06-27T04:45:23.328Z,3.33
2019-06-27T04:47:55.009Z,3.37
2019-06-27T04:50:26.773Z,3.67
2019-06-27T04:52:58.561Z,3.23
2019-06-27T04:55:30.521Z,2.93
2019-06-27T04:58:02.563Z,3.40
2019-06-27T05:00:34.633Z,3.43
2019-06-27T05:03:07.061Z,3.13
2019-06-27T05:05:38.757Z,3.20
2019-06-27T05:08:14.262Z,3.37
2019-06-27T05:10:44.407Z,3.07
2019-06-27T05:13:16.375Z,3.60
2019-06-27T05:15:48.631Z,3.13
2019-06-27T05:18:20.548Z,3.13
2019-06-27T05:20:52.204Z,3.30
2019-06-27T05:23:24.215Z,3.17
2019-06-27T05:25:56.406Z,3.03
2019-06-27T05:28:28.890Z,2.80
2019-06-27T05:31:01.568Z,3.17
2019-06-27T05:33:33.817Z,3.20
2019-06-27T05:36:06.008Z,3.50
2019-06-27T05:38:37.768Z,2.70
2019-06-27T05:41:09.644Z,3.23
2019-06-27T05:43:41.743Z,3.33
2019-06-27T05:46:13.715Z,3.00
2019-06-27T05:48:45.787Z,3.50
2019-06-27T05:51:18.138Z,2.80
2019-06-27T05:53:50.240Z,3.00
2019-06-27T05:56:22.304Z,2.80
2019-06-27T05:58:54.335Z,2.87
2019-06-27T06:01:26.418Z,3.47
2019-06-27T06:03:58.726Z,2.80
2019-06-27T06:06:30.806Z,3.27
2019-06-27T06:09:03.137Z,3.27
2019-06-27T06:11:34.940Z,2.50
2019-06-27T06:14:06.774Z,2.50
2019-06-27T06:16:38.786Z,3.47
2019-06-27T06:19:10.850Z,3.17
2019-06-27T06:21:42.521Z,2.60
2019-06-27T06:24:14.164Z,2.80
2019-06-27T06:26:45.830Z,2.97
2019-06-27T06:29:17.923Z,3.73
2019-06-27T06:31:49.728Z,3.13
2019-06-27T06:34:22.044Z,3.23
2019-06-27T06:36:54.118Z,3.07
2019-06-27T06:39:25.871Z,3.20
2019-06-27T06:41:58.368Z,3.17
2019-06-27T06:44:30.397Z,3.23
2019-06-27T06:47:02.748Z,3.10
2019-06-27T06:49:34.678Z,3.50
2019-06-27T06:52:06.362Z,3.30
2019-06-27T06:54:38.645Z,2.80
2019-06-27T06:57:10.584Z,3.40
2019-06-27T06:59:42.629Z,3.43
2019-06-27T07:02:14.841Z,2.63
2019-06-27T07:04:47.192Z,2.77
2019-06-27T07:07:18.952Z,3.13
2019-06-27T07:09:50.944Z,3.20
2019-06-27T07:12:23.989Z,3.17
2019-06-27T07:14:56.363Z,2.70
2019-06-27T07:17:28.356Z,2.80
2019-06-27T07:20:00.740Z,2.57
2019-06-27T07:22:32.729Z,3.40
2019-06-27T07:25:05.110Z,2.63
2019-06-27T07:27:37.911Z,3.10
2019-06-27T07:30:14.151Z,3.17
2019-06-27T07:32:55.939Z,2.87
2019-06-27T07:35:28.197Z,3.00
2019-06-27T07:38:00.597Z,2.93
2019-06-27T07:40:33.342Z,3.33
2019-06-27T07:43:05.429Z,2.77
2019-06-27T07:45:37.286Z,2.93
2019-06-27T07:48:08.976Z,3.10
2019-06-27T07:50:41.158Z,2.57
2019-06-27T07:53:13.549Z,2.67
2019-06-27T07:55:45.666Z,2.67
2019-06-27T07:58:17.473Z,2.70
2019-06-27T08:00:49.800Z,3.10
2019-06-27T08:03:21.873Z,3.00
2019-06-27T08:05:54.024Z,2.80
2019-06-27T08:08:26.049Z,2.63
2019-06-27T08:10:57.750Z,2.37
2019-06-27T08:13:29.409Z,2.80
2019-06-27T08:16:01.273Z,2.60
2019-06-27T08:18:33.199Z,2.90
2019-06-27T08:21:05.208Z,2.73
2019-06-27T08:23:41.351Z,3.00
2019-06-27T08:26:10.646Z,2.83
2019-06-27T08:28:42.403Z,2.80
2019-06-27T08:31:14.431Z,3.27
2019-06-27T08:33:46.441Z,2.77
2019-06-27T08:36:18.164Z,3.20
2019-06-27T08:38:50.646Z,2.43
2019-06-27T08:41:22.493Z,2.87
2019-06-27T08:43:54.854Z,3.17
2019-06-27T08:46:29.829Z,2.90
2019-06-27T08:49:00.491Z,3.93
2019-06-27T08:51:32.218Z,3.10
2019-06-27T08:54:04.073Z,2.73
2019-06-27T08:56:35.763Z,2.73
2019-06-27T08:59:07.606Z,2.40
2019-06-27T09:01:39.507Z,3.13
2019-06-27T09:04:11.610Z,2.87
2019-06-27T09:06:43.498Z,3.17
2019-06-27T09:09:15.417Z,2.93
2019-06-27T09:11:47.273Z,2.60
2019-06-27T09:14:19.268Z,2.97
2019-06-27T09:16:50.969Z,2.90
2019-06-27T09:19:22.711Z,2.77
2019-06-27T09:21:55.405Z,2.93
2019-06-27T09:24:27.459Z,2.47
2019-06-27T09:26:59.412Z,2.67
2019-06-27T09:29:31.883Z,3.17
2019-06-27T09:32:03.726Z,2.53
2019-06-27T09:34:35.760Z,2.60
2019-06-27T09:37:07.491Z,2.40
2019-06-27T09:39:39.370Z,2.40
2019-06-27T09:42:11.140Z,2.23
2019-06-27T09:44:42.835Z,3.60
2019-06-27T09:47:14.475Z,2.67
2019-06-27T09:49:46.167Z,2.63
2019-06-27T09:52:18.272Z,3.20
2019-06-27T09:54:50.081Z,3.10
2019-06-27T09:57:21.847Z,2.50
2019-06-27T09:59:53.812Z,2.17
2019-06-27T10:02:40.566Z,3.10
2019-06-27T10:04:59.843Z,2.50
2019-06-27T10:07:31.577Z,2.87
2019-06-27T10:10:03.731Z,3.30
2019-06-27T10:12:42.252Z,3.93
2019-06-27T10:15:11.101Z,3.10
2019-06-27T10:17:43.322Z,2.53
2019-06-27T10:20:16.062Z,3.33
2019-06-27T10:22:48.101Z,3.23
2019-06-27T10:25:20.406Z,2.90
2019-06-27T10:27:52.449Z,2.80
2019-06-27T10:30:24.648Z,2.60
2019-06-27T10:32:59.614Z,2.60
2019-06-27T10:35:30.113Z,2.93
2019-06-27T10:38:02.128Z,2.73
2019-06-27T10:40:34.070Z,2.80
2019-06-27T10:43:05.846Z,2.60
2019-06-27T10:45:37.533Z,3.20
2019-06-27T10:48:09.513Z,3.20
2019-06-27T10:50:41.311Z,2.90
2019-06-27T10:53:13.297Z,2.90
2019-06-27T10:55:45.202Z,3.00
2019-06-27T10:58:17.070Z,3.77
2019-06-27T11:00:49.178Z,2.60
2019-06-27T11:03:21.119Z,2.80
2019-06-27T11:05:53.171Z,3.07
2019-06-27T11:08:24.968Z,2.67
2019-06-27T11:10:56.857Z,3.33
2019-06-27T11:13:28.703Z,2.83
2019-06-27T11:16:00.828Z,3.20
2019-06-27T11:18:32.674Z,3.30
2019-06-27T11:21:04.568Z,3.03
2019-06-27T11:23:36.602Z,2.83
2019-06-27T11:26:09.561Z,2.37
2019-06-27T11:28:41.515Z,2.80
2019-06-27T11:31:13.896Z,2.90
2019-06-27T11:33:51.761Z,2.90
2019-06-27T11:36:23.967Z,2.97
2019-06-27T11:38:55.699Z,3.00
2019-06-27T11:41:28.078Z,3.13
2019-06-27T11:44:00.079Z,2.77
2019-06-27T11:46:32.219Z,3.10
2019-06-27T11:49:05.018Z,3.17
2019-06-27T11:51:37.401Z,2.10
2019-06-27T11:54:09.602Z,2.23
2019-06-27T11:56:41.738Z,1.97
2019-06-27T11:59:13.815Z,2.33
2019-06-27T12:01:45.947Z,2.40
2019-06-27T12:04:17.829Z,2.60
2019-06-27T12:06:49.940Z,2.83
2019-06-27T12:09:21.975Z,2.60
2019-06-27T12:11:53.860Z,2.30
2019-06-27T12:14:26.004Z,2.20
2019-06-27T12:16:58.070Z,2.73
2019-06-27T12:19:30.014Z,2.50
2019-06-27T12:22:02.717Z,2.40
2019-06-27T12:24:36.830Z,2.47
2019-06-27T12:27:08.694Z,2.43
2019-06-27T12:29:40.610Z,2.30
2019-06-27T12:32:12.584Z,2.20
2019-06-27T12:34:44.409Z,2.43
2019-06-27T12:37:16.394Z,2.53
2019-06-27T12:39:48.443Z,2.30
2019-06-27T12:42:31.873Z,2.60
2019-06-27T12:44:54.688Z,2.27
2019-06-27T12:47:27.262Z,2.43
2019-06-27T12:50:02.618Z,2.43
2019-06-27T12:52:35.308Z,3.13
2019-06-27T12:55:07.927Z,2.47
2019-06-27T12:57:40.029Z,2.60
2019-06-27T13:00:13.935Z,2.07
2019-06-27T13:02:46.502Z,2.20
2019-06-27T13:05:20.695Z,2.00
2019-06-27T13:07:53.079Z,2.07
2019-06-27T13:10:35.416Z,2.57
2019-06-27T13:13:06.282Z,2.13
2019-06-27T13:15:39.221Z,2.30
2019-06-27T13:18:13.268Z,2.53
2019-06-27T13:20:57.132Z,2.00
2019-06-27T13:23:19.664Z,1.83
2019-06-27T13:25:51.631Z,2.27
2019-06-27T13:28:25.135Z,2.50
2019-06-27T13:30:57.171Z,3.60
2019-06-27T13:33:29.424Z,2.67
2019-06-27T13:36:01.632Z,1.93
2019-06-27T13:38:33.805Z,1.80
2019-06-27T13:41:05.989Z,2.57
2019-06-27T13:43:38.579Z,2.13
2019-06-27T13:46:11.428Z,2.40
2019-06-27T13:48:44.255Z,2.37
2019-06-27T13:51:17.425Z,2.27
2019-06-27T13:53:49.906Z,2.23
2019-06-27T13:56:22.160Z,2.20
2019-06-27T13:58:54.663Z,1.90
2019-06-27T14:01:28.215Z,2.50
2019-06-27T14:04:00.805Z,2.57
2019-06-27T14:06:33.108Z,1.90
2019-06-27T14:09:05.458Z,1.90
2019-06-27T14:11:39.539Z,2.50
2019-06-27T14:14:11.995Z,2.17
2019-06-27T14:16:44.209Z,1.97
2019-06-27T14:19:16.593Z,1.73
2019-06-27T14:21:52.937Z,2.17
2019-06-27T14:24:25.234Z,2.10
2019-06-27T14:26:57.883Z,3.63
2019-06-27T14:29:31.046Z,3.20
2019-06-27T14:32:03.160Z,1.80
2019-06-27T14:34:36.241Z,2.00
2019-06-27T14:37:10.527Z,2.37
2019-06-27T14:39:42.834Z,2.20
2019-06-27T14:42:14.934Z,2.30
2019-06-27T14:44:47.226Z,2.40
2019-06-27T14:47:19.347Z,2.27
2019-06-27T14:49:52.068Z,2.03
2019-06-27T14:52:24.713Z,2.37
2019-06-27T14:54:57.706Z,2.20
2019-06-27T14:57:29.718Z,2.40
2019-06-27T15:00:01.945Z,1.83
2019-06-27T15:02:34.153Z,1.97
2019-06-27T15:05:07.035Z,1.90
2019-06-27T15:07:39.465Z,1.90
2019-06-27T15:10:12.746Z,2.00
2019-06-27T15:12:56.489Z,2.53
2019-06-27T15:15:20.848Z,2.37
2019-06-27T15:17:52.943Z,1.93
2019-06-27T15:20:25.442Z,2.53
2019-06-27T15:22:57.653Z,2.40
2019-06-27T15:25:30.392Z,2.17
2019-06-27T15:28:02.538Z,2.57
2019-06-27T15:30:35.039Z,2.63
2019-06-27T15:33:06.923Z,1.93
2019-06-27T15:35:51.649Z,4.57
2019-06-27T15:38:13.007Z,3.27
2019-06-27T15:40:45.488Z,3.13
2019-06-27T15:43:17.880Z,3.47
2019-06-27T15:45:49.961Z,2.60
2019-06-27T15:48:25.409Z,2.10
2019-06-27T15:50:58.680Z,3.20
2019-06-27T15:53:33.469Z,2.20
2019-06-27T15:56:05.883Z,1.93
2019-06-27T15:58:38.982Z,2.10
2019-06-27T16:01:11.261Z,2.23
2019-06-27T16:03:45.782Z,2.03
2019-06-27T16:06:18.255Z,2.00
2019-06-27T16:08:50.568Z,1.83
2019-06-27T16:11:23.218Z,2.10
2019-06-27T16:13:55.156Z,2.00
2019-06-27T16:16:27.563Z,2.10
2019-06-27T16:19:00.195Z,2.60
2019-06-27T16:21:33.805Z,2.10
2019-06-27T16:24:05.815Z,2.10
2019-06-27T16:26:38.936Z,2.13
2019-06-27T16:29:11.054Z,2.03
2019-06-27T16:31:43.581Z,1.80
2019-06-27T16:34:15.608Z,2.03
2019-06-27T16:36:49.003Z,2.23
2019-06-27T16:39:21.223Z,1.87
2019-06-27T16:41:54.231Z,2.17
2019-06-27T16:44:27.414Z,2.57
2019-06-27T16:46:59.752Z,1.93
2019-06-27T16:49:32.492Z,1.90
2019-06-27T16:52:04.718Z,1.90
2019-06-27T16:54:36.780Z,1.63
2019-06-27T16:57:09.106Z,1.50
2019-06-27T16:59:41.133Z,1.90
2019-06-27T17:02:13.996Z,1.87
2019-06-27T17:04:46.107Z,2.27
2019-06-27T17:07:18.389Z,1.70
2019-06-27T17:09:50.898Z,1.53
2019-06-27T17:12:22.986Z,1.50
2019-06-27T17:14:55.267Z,1.80
2019-06-27T17:17:27.385Z,1.63
2019-06-27T17:19:59.628Z,1.70
2019-06-27T17:22:32.199Z,3.20
2019-06-27T17:25:04.595Z,2.03
2019-06-27T17:27:36.843Z,1.63
2019-06-27T17:30:10.647Z,1.80
2019-06-27T17:32:42.696Z,1.60
2019-06-27T17:35:14.572Z,1.60
2019-06-27T17:37:47.044Z,1.97
2019-06-27T17:40:19.340Z,1.50
2019-06-27T17:42:51.528Z,1.80
2019-06-27T17:45:26.412Z,1.70
2019-06-27T17:47:57.850Z,1.93
2019-06-27T17:50:30.061Z,3.90
2019-06-27T17:53:02.284Z,1.47
2019-06-27T17:55:34.199Z,1.70
2019-06-27T17:58:07.062Z,1.70
2019-06-27T18:00:39.604Z,1.50
2019-06-27T18:03:12.697Z,1.80
2019-06-27T18:05:45.273Z,1.50
2019-06-27T18:08:18.079Z,1.63
2019-06-27T18:10:50.371Z,1.77
2019-06-27T18:13:24.099Z,1.60
2019-06-27T18:15:56.639Z,1.80
2019-06-27T18:18:29.042Z,1.80
2019-06-27T18:21:02.287Z,1.67
2019-06-27T18:23:34.496Z,1.90
2019-06-27T18:26:06.848Z,1.67
2019-06-27T18:28:39.576Z,2.23
2019-06-27T18:31:11.831Z,1.80
2019-06-27T18:33:44.140Z,2.07
2019-06-27T18:36:36.563Z,1.30
2019-06-27T18:39:08.875Z,2.03
2019-06-27T18:41:41.432Z,2.40
2019-06-27T18:44:13.690Z,2.10
2019-06-27T18:46:46.060Z,2.57
2019-06-27T18:49:18.298Z,1.77
2019-06-27T18:51:50.466Z,1.83
2019-06-27T18:54:24.138Z,2.40
2019-06-27T18:56:56.346Z,2.20
2019-06-27T18:59:28.875Z,2.13
2019-06-27T19:02:01.965Z,2.03
2019-06-27T19:04:34.530Z,1.73
2019-06-27T19:07:06.999Z,2.30
2019-06-27T19:09:39.583Z,1.93
2019-06-27T19:12:12.088Z,2.00
2019-06-27T19:14:44.424Z,2.10
2019-06-27T19:17:19.829Z,2.10
2019-06-27T19:19:54.850Z,2.20
2019-06-27T19:22:49.347Z,2.40
2019-06-27T19:25:30.739Z,2.67
2019-06-27T19:28:09.770Z,2.07
2019-06-27T19:30:42.562Z,2.13
2019-06-27T19:33:15.535Z,2.37
2019-06-27T19:35:47.792Z,2.27
2019-06-27T19:38:20.455Z,2.50
2019-06-27T19:40:52.553Z,2.60
2019-06-27T19:43:27.979Z,2.00
2019-06-27T19:46:00.233Z,2.47
2019-06-27T19:48:32.700Z,2.50
2019-06-27T19:51:04.699Z,2.30
2019-06-27T19:53:37.173Z,2.00
2019-06-27T19:56:10.623Z,2.07
2019-06-27T19:58:42.971Z,2.57
2019-06-27T20:01:15.653Z,2.30
2019-06-27T20:03:48.912Z,2.20
2019-06-27T20:06:24.009Z,2.80
2019-06-27T20:08:58.922Z,2.27
2019-06-27T20:11:31.662Z,2.40
2019-06-27T20:14:06.863Z,2.30
2019-06-27T20:16:40.285Z,2.20
2019-06-27T20:19:13.950Z,2.17
2019-06-27T20:21:46.056Z,2.10
2019-06-27T20:24:21.910Z,2.37
2019-06-27T20:26:56.124Z,2.17
2019-06-27T20:29:30.841Z,2.30
2019-06-27T20:32:06.220Z,2.50
2019-06-27T20:34:41.450Z,2.30
2019-06-27T20:37:14.601Z,2.27
2019-06-27T20:39:47.733Z,2.43
2019-06-27T20:42:21.336Z,2.57
2019-06-27T20:44:53.809Z,2.10
2019-06-27T20:47:26.925Z,2.37
2019-06-27T20:50:00.546Z,2.10
2019-06-27T20:52:36.251Z,2.13
2019-06-27T20:55:08.546Z,2.07
2019-06-27T20:57:43.273Z,2.37
2019-06-27T21:00:17.030Z,2.87
2019-06-27T21:02:50.231Z,2.80
2019-06-27T21:05:22.982Z,2.73
2019-06-27T21:07:59.043Z,2.67
2019-06-27T21:10:31.780Z,2.93
2019-06-27T21:13:04.171Z,3.90
2019-06-27T21:15:36.935Z,3.10
2019-06-27T21:18:09.407Z,2.97
2019-06-27T21:20:42.749Z,2.70
2019-06-27T21:23:15.382Z,2.50
2019-06-27T21:25:53.254Z,3.67
2019-06-27T21:28:25.450Z,2.83
2019-06-27T21:30:57.642Z,3.47
2019-06-27T21:33:30.529Z,2.60
2019-06-27T21:36:05.850Z,2.90
2019-06-27T21:38:38.656Z,2.60
2019-06-27T21:41:10.742Z,2.70
2019-06-27T21:43:43.130Z,2.77
2019-06-27T21:46:15.143Z,2.63
2019-06-27T21:48:47.688Z,2.40
2019-06-27T21:51:19.901Z,2.70
2019-06-27T21:53:52.784Z,2.53
2019-06-27T21:56:25.972Z,2.40
2019-06-27T21:58:58.267Z,2.77
2019-06-27T22:01:30.723Z,3.03
2019-06-27T22:04:03.277Z,2.70
2019-06-27T22:06:35.672Z,3.30
2019-06-27T22:09:23.311Z,2.60
2019-06-27T22:11:43.748Z,2.93
2019-06-27T22:14:16.232Z,2.93
2019-06-27T22:16:47.973Z,2.60
2019-06-27T22:19:20.223Z,2.73
2019-06-27T22:21:54.326Z,2.73
2019-06-27T22:24:26.663Z,3.20
2019-06-27T22:26:58.842Z,2.63
2019-06-27T22:29:30.769Z,2.33
2019-06-27T22:32:02.891Z,2.60
2019-06-27T22:34:35.325Z,2.70
2019-06-27T22:37:07.832Z,2.77
2019-06-27T22:39:58.109Z,4.40
2019-06-27T22:42:48.907Z,3.03
2019-06-27T22:45:39.181Z,3.20
2019-06-27T22:48:14.634Z,2.57
2019-06-27T22:51:09.616Z,2.40
2019-06-27T22:53:51.225Z,3.10
2019-06-27T22:56:23.205Z,3.03
2019-06-27T22:58:55.306Z,3.33
2019-06-27T23:01:27.231Z,2.87
2019-06-27T23:03:59.052Z,3.20
2019-06-27T23:06:31.120Z,2.93
2019-06-27T23:09:04.670Z,2.80
2019-06-27T23:11:37.130Z,2.87
2019-06-27T23:14:09.444Z,2.70
2019-06-27T23:16:41.747Z,2.93
2019-06-27T23:19:13.535Z,2.97
2019-06-27T23:21:45.563Z,2.90
2019-06-27T23:24:17.961Z,2.70
2019-06-27T23:26:50.003Z,3.00
2019-06-27T23:29:21.675Z,2.83
2019-06-27T23:31:53.741Z,3.00
2019-06-27T23:34:25.795Z,3.00
2019-06-27T23:36:58.075Z,3.10
2019-06-27T23:39:29.740Z,3.40
2019-06-27T23:42:01.454Z,3.03
2019-06-27T23:44:33.240Z,2.80
2019-06-27T23:47:05.044Z,3.77
2019-06-27T23:49:37.037Z,3.87
2019-06-27T23:52:09.472Z,2.80
2019-06-27T23:54:41.522Z,2.90
2019-06-27T23:57:14.211Z,3.00
2019-06-27T23:59:46.308Z,3.00
